createdAt,value
2022-11-09T00:00:32.341Z,6.70
2022-11-09T00:05:31.493Z,6.70
2022-11-09T00:10:31.031Z,6.64
2022-11-09T00:15:30.274Z,6.60
2022-11-09T00:20:28.932Z,6.60
2022-11-09T00:25:30.558Z,6.50
2022-11-09T00:30:31.200Z,6.50
2022-11-09T00:35:31.009Z,6.48
2022-11-09T00:40:30.827Z,6.40
2022-11-09T00:45:30.685Z,6.40
2022-11-09T00:50:30.281Z,6.40
2022-11-09T00:55:30.293Z,6.40
2022-11-09T01:00:29.454Z,6.40
2022-11-09T01:05:28.372Z,6.38
2022-11-09T01:10:27.424Z,6.30
2022-11-09T01:15:28.600Z,6.30
2022-11-09T01:20:28.494Z,6.30
2022-11-09T01:25:28.015Z,6.30
2022-11-09T01:30:28.226Z,6.30
2022-11-09T01:35:27.781Z,6.30
2022-11-09T01:40:26.714Z,6.30
2022-11-09T01:45:32.413Z,6.30
2022-11-09T01:50:41.789Z,6.40
2022-11-09T01:55:41.724Z,6.40
2022-11-09T02:00:47.485Z,6.40
2022-11-09T02:05:48.768Z,6.40
2022-11-09T02:11:02.112Z,6.40
2022-11-09T02:16:03.789Z,6.40
2022-11-09T02:21:03.856Z,6.40
2022-11-09T02:26:10.264Z,6.40
2022-11-09T02:31:14.858Z,6.30
2022-11-09T02:36:15.183Z,6.30
2022-11-09T02:41:16.151Z,6.30
2022-11-09T02:46:15.106Z,6.30
2022-11-09T02:51:14.811Z,6.30
2022-11-09T02:56:17.043Z,6.30
2022-11-09T03:01:17.982Z,6.24
2022-11-09T03:06:17.449Z,6.20
2022-11-09T03:11:18.022Z,6.20
2022-11-09T03:16:19.134Z,6.22
2022-11-09T03:21:22.168Z,6.22
2022-11-09T03:26:24.390Z,6.26
2022-11-09T03:31:24.680Z,6.22
2022-11-09T03:36:24.878Z,6.26
2022-11-09T03:41:24.918Z,6.30
2022-11-09T03:46:24.339Z,6.30
2022-11-09T03:51:23.758Z,6.30
2022-11-09T03:56:22.970Z,6.30
2022-11-09T04:01:22.521Z,6.30
2022-11-09T04:06:21.583Z,6.30
2022-11-09T04:11:21.262Z,6.30
2022-11-09T04:16:20.376Z,6.30
2022-11-09T04:21:23.754Z,6.30
2022-11-09T04:26:22.781Z,6.30
2022-11-09T04:31:25.488Z,6.30
2022-11-09T04:36:27.176Z,6.30
2022-11-09T04:41:26.365Z,6.20
2022-11-09T04:46:26.224Z,6.20
2022-11-09T04:51:25.891Z,6.20
2022-11-09T04:56:25.414Z,6.10
2022-11-09T05:01:24.913Z,6.10
2022-11-09T05:06:33.572Z,6.02
2022-11-09T05:11:33.364Z,6.00
2022-11-09T05:16:37.848Z,6.00
2022-11-09T05:21:40.403Z,5.92
2022-11-09T05:26:42.507Z,5.90
2022-11-09T05:31:51.850Z,5.90
2022-11-09T05:36:52.568Z,5.86
2022-11-09T05:41:52.077Z,5.80
2022-11-09T05:46:51.323Z,5.80
2022-11-09T05:51:50.161Z,5.80
2022-11-09T05:56:49.140Z,5.80
2022-11-09T06:01:47.965Z,5.80
2022-11-09T06:06:47.822Z,5.80
2022-11-09T06:11:47.000Z,5.80
2022-11-09T06:16:45.669Z,5.90
2022-11-09T06:21:45.299Z,5.90
2022-11-09T06:26:46.371Z,5.90
2022-11-09T06:31:46.325Z,5.94
2022-11-09T06:36:45.191Z,6.00
2022-11-09T06:41:47.369Z,6.08
2022-11-09T06:46:46.453Z,6.10
2022-11-09T06:51:45.935Z,6.20
2022-11-09T06:56:45.580Z,6.30
2022-11-09T07:01:44.101Z,6.40
2022-11-09T07:06:46.261Z,6.50
2022-11-09T07:11:45.341Z,6.60
2022-11-09T07:16:44.384Z,6.80
2022-11-09T07:21:43.365Z,6.90
2022-11-09T07:26:41.984Z,7.10
2022-11-09T07:31:41.324Z,7.20
2022-11-09T07:36:40.565Z,7.32
2022-11-09T07:41:39.854Z,7.50
2022-11-09T07:46:39.343Z,7.60
2022-11-09T07:51:38.894Z,7.70
2022-11-09T07:56:38.420Z,7.80
2022-11-09T08:01:37.149Z,7.90
2022-11-09T08:06:37.411Z,8.00
2022-11-09T08:11:36.464Z,8.10
2022-11-09T08:16:37.824Z,8.20
2022-11-09T08:21:38.085Z,8.34
2022-11-09T08:26:37.417Z,8.50
2022-11-09T08:31:36.571Z,8.60
2022-11-09T08:36:36.281Z,8.80
2022-11-09T08:41:35.438Z,9.00
2022-11-09T08:46:39.923Z,9.26
2022-11-09T08:51:40.587Z,9.52
2022-11-09T08:56:39.579Z,9.86
2022-11-09T09:01:38.834Z,10.20
2022-11-09T09:06:37.865Z,10.50
2022-11-09T09:11:36.915Z,10.80
2022-11-09T09:16:36.156Z,11.10
2022-11-09T09:21:35.119Z,11.30
2022-11-09T09:26:34.088Z,11.52
2022-11-09T09:31:33.152Z,11.80
2022-11-09T09:36:31.670Z,12.00
2022-11-09T09:41:38.881Z,12.20
2022-11-09T09:46:48.212Z,12.24
2022-11-09T09:51:55.328Z,12.40
2022-11-09T09:56:59.877Z,12.60
2022-11-09T10:01:59.081Z,12.60
2022-11-09T10:07:11.548Z,12.60
2022-11-09T10:12:25.091Z,12.70
2022-11-09T10:17:39.924Z,12.60
2022-11-09T10:22:56.147Z,12.70
2022-11-09T10:27:59.441Z,12.60
2022-11-09T10:33:06.749Z,12.60
2022-11-09T10:38:06.152Z,12.50
2022-11-09T10:43:11.492Z,12.50
2022-11-09T10:48:37.497Z,12.40
2022-11-09T10:54:20.330Z,12.50
2022-11-09T10:59:52.086Z,12.60
2022-11-09T11:05:33.888Z,12.80
2022-11-09T11:11:02.172Z,12.82
2022-11-09T11:16:35.629Z,12.96
2022-11-09T11:22:23.283Z,13.10
2022-11-09T11:27:50.027Z,13.20
2022-11-09T11:33:16.340Z,13.40
2022-11-09T11:38:43.246Z,13.50
2022-11-09T11:44:15.614Z,13.60
2022-11-09T11:50:04.212Z,13.70
2022-11-09T11:55:52.472Z,13.80
2022-11-09T12:01:30.542Z,13.80
2022-11-09T12:07:01.035Z,13.80
2022-11-09T12:12:31.801Z,13.90
2022-11-09T12:18:13.279Z,14.00
2022-11-09T12:23:49.979Z,14.20
2022-11-09T12:29:20.835Z,14.50
2022-11-09T12:34:48.358Z,14.90
2022-11-09T12:40:21.020Z,15.10
2022-11-09T12:45:42.303Z,15.20
2022-11-09T12:51:02.161Z,15.20
2022-11-09T12:56:26.858Z,15.18
2022-11-09T13:01:56.296Z,15.16
2022-11-09T13:07:43.971Z,15.10
2022-11-09T13:13:33.347Z,15.00
2022-11-09T13:19:04.089Z,14.82
2022-11-09T13:24:56.249Z,14.60
2022-11-09T13:30:44.400Z,14.40
2022-11-09T13:36:23.075Z,14.10
2022-11-09T13:41:48.376Z,14.00
2022-11-09T13:47:06.188Z,13.80
2022-11-09T13:52:53.766Z,13.60
2022-11-09T13:58:26.280Z,13.40
2022-11-09T14:03:51.595Z,13.20
2022-11-09T14:09:16.731Z,13.06
2022-11-09T14:15:09.815Z,12.90
2022-11-09T14:20:40.280Z,12.80
2022-11-09T14:25:58.147Z,12.80
2022-11-09T14:31:28.944Z,12.70
2022-11-09T14:36:47.138Z,12.60
2022-11-09T14:42:07.268Z,12.60
2022-11-09T14:47:31.936Z,12.50
2022-11-09T14:52:50.761Z,12.42
2022-11-09T14:58:15.231Z,12.30
2022-11-09T15:03:33.654Z,12.28
2022-11-09T15:08:58.858Z,12.20
2022-11-09T15:14:31.042Z,12.10
2022-11-09T15:19:57.350Z,12.00
2022-11-09T15:25:28.970Z,12.00
2022-11-09T15:30:50.047Z,11.90
2022-11-09T15:36:25.363Z,11.84
2022-11-09T15:41:42.696Z,11.80
2022-11-09T15:47:00.590Z,11.70
2022-11-09T15:52:18.707Z,11.60
2022-11-09T15:57:36.502Z,11.52
2022-11-09T16:02:54.034Z,11.50
2022-11-09T16:08:12.392Z,11.40
2022-11-09T16:13:30.796Z,11.30
2022-11-09T16:18:48.706Z,11.26
2022-11-09T16:24:06.591Z,11.20
2022-11-09T16:29:24.956Z,11.10
2022-11-09T16:34:57.774Z,11.00
2022-11-09T16:40:24.356Z,10.90
2022-11-09T16:45:49.991Z,10.80
2022-11-09T16:51:08.242Z,10.68
2022-11-09T16:56:26.382Z,10.58
2022-11-09T17:01:46.081Z,10.50
2022-11-09T17:07:03.499Z,10.40
2022-11-09T17:12:21.609Z,10.30
2022-11-09T17:17:39.498Z,10.20
2022-11-09T17:22:56.884Z,10.20
2022-11-09T17:28:14.530Z,10.10
2022-11-09T17:33:32.061Z,10.10
2022-11-09T17:38:50.189Z,10.00
2022-11-09T17:44:08.374Z,10.00
2022-11-09T17:49:26.064Z,10.00
2022-11-09T17:54:43.354Z,9.90
2022-11-09T18:00:01.055Z,9.90
2022-11-09T18:05:19.062Z,9.80
2022-11-09T18:10:37.373Z,9.80
2022-11-09T18:15:56.053Z,9.80
2022-11-09T18:21:16.473Z,9.80
2022-11-09T18:26:34.728Z,9.80
2022-11-09T18:31:52.102Z,9.80
2022-11-09T18:37:09.558Z,9.88
2022-11-09T18:42:27.738Z,9.90
2022-11-09T18:47:45.898Z,9.90
2022-11-09T18:53:03.912Z,9.90
2022-11-09T18:58:21.962Z,9.90
2022-11-09T19:03:40.710Z,9.90
2022-11-09T19:09:15.682Z,9.80
2022-11-09T19:14:40.885Z,9.80
2022-11-09T19:19:58.765Z,9.78
2022-11-09T19:25:16.755Z,9.70
2022-11-09T19:30:34.919Z,9.70
2022-11-09T19:36:28.083Z,9.70
2022-11-09T19:41:35.510Z,9.70
2022-11-09T19:46:53.310Z,9.60
2022-11-09T19:52:10.977Z,9.60
2022-11-09T19:57:31.160Z,9.58
2022-11-09T20:02:49.821Z,9.50
2022-11-09T20:08:08.904Z,9.50
2022-11-09T20:13:27.046Z,9.50
2022-11-09T20:18:45.078Z,9.40
2022-11-09T20:24:03.012Z,9.40
2022-11-09T20:29:22.335Z,9.24
2022-11-09T20:34:39.860Z,9.10
2022-11-09T20:39:57.717Z,9.00
2022-11-09T20:45:16.411Z,8.84
2022-11-09T20:50:34.721Z,8.70
2022-11-09T20:55:55.491Z,8.58
2022-11-09T21:01:17.732Z,8.40
2022-11-09T21:06:35.461Z,8.30
2022-11-09T21:12:10.444Z,8.20
2022-11-09T21:17:27.467Z,8.14
2022-11-09T21:23:00.144Z,8.00
2022-11-09T21:28:48.349Z,7.90
2022-11-09T21:34:06.091Z,7.86
2022-11-09T21:39:24.983Z,7.80
2022-11-09T21:44:44.233Z,7.70
2022-11-09T21:50:02.079Z,7.70
2022-11-09T21:55:21.083Z,7.60
2022-11-09T22:00:39.824Z,7.60
2022-11-09T22:05:57.937Z,7.50
2022-11-09T22:11:18.564Z,7.40
2022-11-09T22:16:37.397Z,7.30
2022-11-09T22:21:55.454Z,7.20
2022-11-09T22:27:14.144Z,7.20
2022-11-09T22:32:30.869Z,7.10
2022-11-09T22:37:48.485Z,7.00
2022-11-09T22:43:06.761Z,6.92
2022-11-09T22:48:24.691Z,6.90
2022-11-09T22:53:42.229Z,6.80
2022-11-09T22:59:00.686Z,6.80
2022-11-09T23:04:18.703Z,6.80
2022-11-09T23:09:36.519Z,6.78
2022-11-09T23:15:06.187Z,6.80
2022-11-09T23:20:24.585Z,6.80
2022-11-09T23:25:57.622Z,6.82
2022-11-09T23:31:24.507Z,6.90
2022-11-09T23:36:41.665Z,6.88
2022-11-09T23:41:59.257Z,6.90
2022-11-09T23:47:16.492Z,6.90
2022-11-09T23:52:34.720Z,6.90
2022-11-09T23:57:52.685Z,6.90
